Pagrindinis puslapis
METAR-TAF:

METAR-TAF

Oro uostai :

Dumaguete, Filipinai

platuma: 09-20-01N, ilguma: 123-18-02E, Aukštis: 5 m

Dabartinis oras

Ataskaita buvo paskelbta 23 minutes, ne 02:00 UTC
Vėjas 8 kt iš Rytų/Šiaurės Rytų
Temperatūra 31°C
Drėgmė 71%
Slėgis 1010 hPa
Matomumas 10 km arba daugiau
Išsisklaidę debesys ne aukštis 1500 ft
Išsisklaidę debesys ne aukštis 7000 ft

METAR: RPVD 290200Z 07008KT 9999 SCT015 SCT070 31/25 Q1010 RMK A2983

Laikas: 10:23 (02:23 UTC)

Prognozė

Ataskaita buvo paskelbta 3 valandos ir 23 minutes, ne 23:00 UTC
Prognozė galioja nuo 29 metu 00 UTC su 29 metu 24 UTC
Vėjas 8 kt iš Šiaurės Rytų
Matomumas 10 km arba daugiau
Mažai debesys ne aukštis 1500 ft
Išsisklaidę debesys ne aukštis 7000 ft
Laikinai
nuo 29 metu 00 UTC su 29 metu 06 UTC
Mažai debesys ne aukštis 1400 ft, Liūtiniai kamuoliniai debesys.
Išsisklaidę debesys ne aukštis 1500 ft
Su prošvaistėmis ne aukštis 7000 ft
Liūtis kaimynystėje

TAF: RPVD 282300Z 2900/2924 04008KT 9999 FEW015 SCT070 TEMPO 2900/2906 VCSH FEW014CB SCT015 BKN070

Orai ataskaitas ir orų prognozės (METAR, TAF).

turimą stotys yra geltonos ir raudonos taškus žemėlapyje.

Perkelti pele per norėdami pamatyti stoties vardą.

Tada spustelėkite, norėdami matyti oro stebėjimo ir prognozės.

Norėdami pakeisti žemėlapį: spustelėkite ant žalios mygtukų su juodo kryžiaus žemyn,; žalią mygtuką su brūkšneliu, jei norite nutolinti; arba žalių rodyklių gretimoms žemėlapius.


METAR-TAF: